Time;durP1;ratioP1;P1;durP2;ratioP2;P2;SDS_P1;SDS_P2;PMS_P1;PMS_P2;Temp;Humidity;BMP_temperature;BMP_pressure;BME280_temperature;BME280_humidity;BME280_pressure;Samples;Min_cycle;Max_cycle;Signal;HPM_P1;HPM_P2
2022/07/10 06:00:07;;;;;;;4.03;1.13;;;19.10;69.60;;;;;;4801661;29;20082;-74
2022/07/10 06:02:33;;;;;;;6.45;1.27;;;19.10;69.80;;;;;;4805642;29;20081;-74
2022/07/10 06:04:59;;;;;;;7.85;1.95;;;19.10;69.90;;;;;;4806653;29;20466;-76
2022/07/10 06:07:25;;;;;;;6.95;1.50;;;19.10;70.00;;;;;;4808116;29;20078;-72
2022/07/10 06:09:51;;;;;;;5.07;1.13;;;19.10;70.00;;;;;;4809378;29;20050;-77
2022/07/10 06:12:17;;;;;;;4.20;1.00;;;19.10;69.90;;;;;;4805992;29;20057;-77
2022/07/10 06:14:42;;;;;;;3.03;1.15;;;19.10;69.90;;;;;;4806677;29;20065;-76
2022/07/10 06:17:08;;;;;;;6.05;1.08;;;19.10;69.70;;;;;;4807779;29;20046;-79
2022/07/10 06:19:34;;;;;;;3.63;0.52;;;19.10;69.70;;;;;;4806597;29;20066;-80
2022/07/10 06:24:44;;;;;;;3.05;0.60;;;19.10;69.70;;;;;;4811367;29;20131;-76
2022/07/10 06:27:10;;;;;;;4.85;1.42;;;19.10;69.70;;;;;;4811053;29;20458;-77
2022/07/10 06:29:36;;;;;;;3.03;0.80;;;19.00;69.80;;;;;;4811040;29;20058;-76
2022/07/10 06:32:03;;;;;;;3.63;0.80;;;19.00;69.90;;;;;;4810697;29;20107;-76
2022/07/10 06:34:28;;;;;;;3.63;1.08;;;19.00;69.90;;;;;;4824844;29;20054;-76
2022/07/10 06:36:54;;;;;;;5.72;1.33;;;19.00;69.90;;;;;;4811085;29;20046;-74
2022/07/10 06:39:20;;;;;;;4.65;0.93;;;19.10;69.90;;;;;;4811036;29;20059;-74
2022/07/10 06:41:46;;;;;;;4.05;0.90;;;19.00;69.80;;;;;;4810952;29;20477;-74
2022/07/10 06:44:11;;;;;;;2.50;0.68;;;19.00;69.80;;;;;;4811162;29;20054;-76
2022/07/10 06:46:37;;;;;;;3.10;0.75;;;19.00;69.80;;;;;;4811407;29;20424;-74
2022/07/10 06:49:03;;;;;;;3.00;0.70;;;19.00;69.90;;;;;;4810645;29;20142;-74
2022/07/10 06:51:29;;;;;;;4.63;1.02;;;19.00;69.90;;;;;;4811047;29;20047;-74
2022/07/10 06:53:56;;;;;;;5.35;1.25;;;19.00;69.90;;;;;;4809967;29;20065;-75
2022/07/10 06:56:22;;;;;;;2.97;0.70;;;19.00;69.90;;;;;;4827014;29;20050;-75
2022/07/10 06:58:48;;;;;;;4.28;0.90;;;19.00;70.10;;;;;;4833018;29;20101;-74
2022/07/10 07:01:14;;;;;;;3.20;0.60;;;18.90;70.20;;;;;;4830868;29;20100;-77
2022/07/10 07:03:40;;;;;;;1.88;0.68;;;19.00;70.40;;;;;;4828178;29;20419;-73
2022/07/10 07:06:06;;;;;;;5.40;0.90;;;18.90;70.40;;;;;;4828956;29;20056;-75
2022/07/10 07:08:32;;;;;;;2.50;0.93;;;19.00;70.50;;;;;;4826890;29;20073;-76
2022/07/10 07:10:57;;;;;;;4.25;0.63;;;19.00;70.60;;;;;;4828684;29;20137;-76
2022/07/10 07:13:23;;;;;;;3.35;0.68;;;19.00;70.70;;;;;;4828574;29;20050;-77
2022/07/10 07:16:00;;;;;;;3.47;1.00;;;19.00;70.70;;;;;;4812306;29;20065;-76
2022/07/10 07:18:37;;;;;;;3.50;1.30;;;19.00;70.80;;;;;;4828223;29;20065;-82
2022/07/10 07:23:47;;;;;;;3.97;0.63;;;19.00;70.70;;;;;;4828358;29;20050;-78
2022/07/10 07:26:12;;;;;;;2.47;0.70;;;18.90;70.70;;;;;;4828204;29;20057;-77
2022/07/10 07:28:38;;;;;;;5.82;0.70;;;18.90;70.80;;;;;;4812238;29;20161;-78
2022/07/10 07:31:04;;;;;;;6.75;1.25;;;19.00;71.40;;;;;;4812359;29;20382;-79
2022/07/10 07:33:33;;;;;;;3.55;0.68;;;19.00;70.70;;;;;;4828548;29;20054;-79
2022/07/10 07:35:59;;;;;;;2.50;0.65;;;19.00;70.80;;;;;;4811310;29;20466;-78
2022/07/10 07:38:24;;;;;;;4.63;0.80;;;19.00;70.80;;;;;;4827950;29;20043;-76
2022/07/10 07:40:50;;;;;;;4.47;1.25;;;19.00;70.80;;;;;;4811882;29;20366;-74
2022/07/10 07:43:16;;;;;;;4.20;0.93;;;19.00;70.60;;;;;;4827974;29;20378;-75
2022/07/10 07:45:41;;;;;;;5.55;1.00;;;19.10;70.50;;;;;;4828036;29;20042;-75
2022/07/10 07:48:07;;;;;;;8.80;1.10;;;19.10;70.60;;;;;;4828030;29;20091;-76
2022/07/10 07:50:36;;;;;;;4.97;0.75;;;19.10;70.40;;;;;;4811888;29;20137;-77
2022/07/10 07:53:04;;;;;;;4.35;1.05;;;19.10;70.90;;;;;;4827919;29;20051;-75
2022/07/10 07:55:31;;;;;;;5.68;0.93;;;19.20;71.40;;;;;;4811405;29;20058;-78
2022/07/10 07:57:57;;;;;;;6.03;1.05;;;19.10;71.50;;;;;;4827644;29;20069;-77
2022/07/10 08:00:25;;;;;;;3.60;1.00;;;19.20;71.70;;;;;;4827517;29;20390;-77
2022/07/10 08:02:52;;;;;;;3.80;0.75;;;19.10;72.10;;;;;;4829948;29;20046;-78
2022/07/10 08:05:18;;;;;;;7.95;0.90;;;19.10;72.40;;;;;;4811710;29;20161;-76
2022/07/10 08:07:46;;;;;;;5.78;1.48;;;19.10;73.10;;;;;;4830892;29;20057;-77
2022/07/10 08:10:14;;;;;;;5.47;0.88;;;19.10;72.60;;;;;;4829369;29;20509;-77
2022/07/10 08:12:41;;;;;;;7.10;1.35;;;19.10;72.50;;;;;;4845810;29;20376;-76
2022/07/10 08:15:11;;;;;;;3.28;0.80;;;19.10;72.20;;;;;;4845746;29;20057;-78
2022/07/10 08:17:37;;;;;;;8.15;1.33;;;19.00;71.90;;;;;;4829888;29;20053;-77
2022/07/10 08:20:05;;;;;;;5.10;0.95;;;19.00;71.90;;;;;;4829262;29;20057;-76
2022/07/10 08:22:31;;;;;;;6.13;1.60;;;19.00;71.80;;;;;;4829305;29;20092;-74
2022/07/10 08:24:57;;;;;;;4.72;1.13;;;19.00;71.70;;;;;;4845591;29;20062;-76
2022/07/10 08:27:26;;;;;;;3.72;0.90;;;19.00;71.60;;;;;;4829727;29;20042;-76
2022/07/10 08:29:52;;;;;;;4.80;1.00;;;19.00;71.50;;;;;;4846093;29;20046;-76
2022/07/10 08:32:18;;;;;;;6.88;1.13;;;19.00;71.50;;;;;;4829050;29;20484;-77
2022/07/10 08:34:44;;;;;;;4.13;1.17;;;19.00;71.40;;;;;;4829353;29;20064;-79
2022/07/10 08:37:10;;;;;;;4.20;0.93;;;19.00;71.40;;;;;;4829460;29;20053;-75
2022/07/10 08:39:36;;;;;;;5.47;1.20;;;18.90;71.30;;;;;;4829552;29;20121;-76
2022/07/10 08:42:04;;;;;;;7.05;0.98;;;18.90;71.20;;;;;;4827852;29;20168;-74
2022/07/10 08:44:30;;;;;;;5.88;0.90;;;18.90;71.30;;;;;;4845121;29;20085;-72
2022/07/10 08:46:56;;;;;;;6.28;0.70;;;18.90;71.30;;;;;;4836934;29;20045;-74
2022/07/10 08:49:31;;;;;;;6.28;1.00;;;19.00;71.40;;;;;;4827024;29;20061;-74
2022/07/10 08:52:12;;;;;;;2.13;0.70;;;19.00;71.30;;;;;;4811073;29;20370;-73
2022/07/10 08:54:38;;;;;;;5.30;0.98;;;19.00;71.10;;;;;;4826719;29;20059;-74
2022/07/10 08:57:05;;;;;;;3.53;1.05;;;19.00;71.20;;;;;;4832662;29;20046;-76
2022/07/10 08:59:31;;;;;;;7.25;1.33;;;19.00;71.20;;;;;;4830228;29;20054;-73
2022/07/10 09:01:58;;;;;;;3.50;0.82;;;19.10;71.20;;;;;;4826321;29;20059;-73
2022/07/10 09:04:26;;;;;;;1.98;0.63;;;19.10;71.10;;;;;;4843948;29;20054;-74
2022/07/10 09:06:53;;;;;;;6.32;1.25;;;19.20;71.00;;;;;;4843738;29;20061;-73
2022/07/10 09:09:19;;;;;;;4.20;0.93;;;19.20;70.80;;;;;;4810601;29;20046;-75
2022/07/10 09:11:46;;;;;;;2.85;0.80;;;19.20;70.80;;;;;;4828709;29;20113;-76
2022/07/10 09:14:15;;;;;;;5.88;0.95;;;19.20;70.90;;;;;;4844842;29;20114;-75
2022/07/10 09:16:42;;;;;;;3.30;0.88;;;19.20;70.80;;;;;;4844891;29;20050;-79
2022/07/10 09:19:26;;;;;;;4.00;0.77;;;19.30;70.80;;;;;;4844680;29;20054;-75
2022/07/10 09:22:02;;;;;;;5.45;1.23;;;19.30;70.40;;;;;;4826681;29;20054;-74
2022/07/10 09:24:39;;;;;;;9.07;0.98;;;19.30;70.30;;;;;;4826884;29;20043;-77
2022/07/10 09:27:05;;;;;;;5.53;1.38;;;19.30;70.60;;;;;;4810446;29;20062;-75
2022/07/10 09:29:32;;;;;;;7.75;1.10;;;19.30;70.70;;;;;;4826447;29;20050;-73
2022/07/10 09:31:59;;;;;;;6.00;0.95;;;19.30;70.50;;;;;;4826243;29;20478;-73
2022/07/10 09:34:42;;;;;;;5.68;1.10;;;19.30;70.50;;;;;;4826432;29;20046;-73
2022/07/10 09:37:27;;;;;;;8.70;1.10;;;19.30;70.10;;;;;;4826373;29;20054;-72
2022/07/10 09:40:05;;;;;;;6.72;1.48;;;19.40;70.60;;;;;;4826303;29;20050;-74
2022/07/10 09:42:39;;;;;;;6.13;1.13;;;19.40;70.80;;;;;;4826550;29;20239;-77
2022/07/10 09:45:16;;;;;;;4.90;0.77;;;19.40;71.20;;;;;;4826600;29;20050;-78
2022/07/10 09:48:05;;;;;;;6.28;1.27;;;19.40;70.50;;;;;;4826395;29;20588;-75
2022/07/10 09:50:36;;;;;;;7.82;1.20;;;19.40;70.50;;;;;;4826093;29;20150;-72
2022/07/10 09:53:07;;;;;;;7.88;1.02;;;19.30;70.70;;;;;;4826351;29;20065;-71
2022/07/10 09:55:35;;;;;;;4.88;0.90;;;19.40;70.80;;;;;;4826214;29;20061;-72
2022/07/10 09:58:03;;;;;;;8.27;1.23;;;19.40;70.90;;;;;;4825198;29;20066;-75
2022/07/10 10:00:33;;;;;;;5.35;1.10;;;19.40;71.10;;;;;;4810220;29;20058;-71
2022/07/10 10:03:04;;;;;;;7.97;1.33;;;19.40;70.90;;;;;;4833614;29;20042;-71
2022/07/10 10:05:45;;;;;;;4.35;0.77;;;19.40;70.90;;;;;;4844320;29;20042;-73
2022/07/10 10:08:22;;;;;;;5.53;1.10;;;19.40;70.70;;;;;;4844168;29;20112;-72
2022/07/10 10:10:50;;;;;;;6.25;1.00;;;19.50;70.80;;;;;;4844302;29;20133;-73
2022/07/10 10:13:23;;;;;;;7.63;1.13;;;19.50;70.80;;;;;;4843758;29;20473;-72
2022/07/10 10:15:51;;;;;;;5.70;1.20;;;19.50;70.90;;;;;;4843792;29;20526;-72
2022/07/10 10:18:24;;;;;;;7.38;0.82;;;19.50;70.90;;;;;;4844341;29;20054;-73
2022/07/10 10:20:52;;;;;;;7.50;0.93;;;19.50;70.90;;;;;;4844493;29;20096;-72
2022/07/10 10:23:24;;;;;;;5.03;1.10;;;19.60;71.00;;;;;;4844043;29;20144;-72
2022/07/10 10:25:56;;;;;;;4.85;1.15;;;19.60;71.00;;;;;;4843737;29;20533;-73
2022/07/10 10:28:23;;;;;;;8.93;1.40;;;19.60;71.00;;;;;;4828896;29;20270;-73
2022/07/10 10:30:53;;;;;;;11.73;1.33;;;19.60;71.10;;;;;;4843393;29;20077;-73
2022/07/10 10:33:51;;;;;;;9.05;1.02;;;19.60;70.80;;;;;;4839273;29;20042;-73
2022/07/10 10:36:37;;;;;;;6.80;1.45;;;19.60;70.40;;;;;;4811730;29;20063;-73
2022/07/10 10:39:16;;;;;;;6.68;1.10;;;19.60;70.20;;;;;;4813082;29;20351;-72
2022/07/10 10:41:52;;;;;;;3.25;1.02;;;19.60;70.10;;;;;;4826033;29;20050;-73
2022/07/10 10:44:18;;;;;;;4.88;1.10;;;19.60;70.00;;;;;;4809247;29;20487;-74
2022/07/10 10:46:50;;;;;;;7.05;1.05;;;19.60;70.00;;;;;;4825446;29;20103;-73
2022/07/10 10:49:16;;;;;;;5.78;1.50;;;19.60;70.10;;;;;;4825620;29;20057;-75
2022/07/10 10:52:13;;;;;;;6.47;1.02;;;19.60;70.10;;;;;;4825767;29;20129;-73
2022/07/10 10:54:59;;;;;;;10.55;1.67;;;19.60;70.20;;;;;;4803573;29;20058;-74
2022/07/10 10:57:31;;;;;;;4.45;1.05;;;19.70;70.10;;;;;;4809906;29;20474;-74
2022/07/10 10:59:59;;;;;;;6.55;1.10;;;19.70;70.10;;;;;;4825497;29;20466;-72
2022/07/10 11:02:42;;;;;;;6.93;1.45;;;19.70;70.00;;;;;;4825247;29;20094;-73
2022/07/10 11:05:14;;;;;;;11.02;1.60;;;19.70;69.90;;;;;;4825526;29;20093;-72
2022/07/10 11:07:59;;;;;;;24.15;1.98;;;19.70;69.80;;;;;;4825450;29;20339;-72
2022/07/10 11:10:40;;;;;;;19.63;2.10;;;19.70;69.80;;;;;;4827040;29;20054;-74
2022/07/10 11:13:11;;;;;;;12.38;1.70;;;19.70;70.00;;;;;;4828421;29;20137;-72
2022/07/10 11:15:42;;;;;;;15.15;1.67;;;19.70;70.00;;;;;;4828495;29;20054;-73
2022/07/10 11:18:10;;;;;;;8.88;1.65;;;19.70;70.00;;;;;;4828454;29;20050;-73
2022/07/10 11:20:37;;;;;;;13.45;1.90;;;19.70;70.00;;;;;;4828454;29;20054;-74
2022/07/10 11:23:29;;;;;;;12.07;2.00;;;19.70;70.70;;;;;;4828337;29;20115;-73
2022/07/10 11:26:10;;;;;;;12.50;1.88;;;19.70;70.00;;;;;;4818199;29;20059;-72
2022/07/10 11:28:51;;;;;;;12.45;2.25;;;19.70;70.20;;;;;;4828261;29;20043;-72
2022/07/10 11:31:18;;;;;;;13.65;1.52;;;19.70;70.10;;;;;;4827914;29;20072;-74
2022/07/10 11:33:51;;;;;;;7.88;1.35;;;19.70;70.00;;;;;;4830108;29;20129;-73
2022/07/10 11:36:21;;;;;;;6.78;1.17;;;19.70;69.10;;;;;;4828118;29;20062;-73
2022/07/10 11:38:48;;;;;;;8.57;1.30;;;19.70;68.90;;;;;;4828052;29;20054;-72
2022/07/10 11:41:15;;;;;;;6.88;1.30;;;19.70;68.90;;;;;;4828190;29;20374;-73
2022/07/10 11:43:52;;;;;;;7.88;1.42;;;19.70;68.90;;;;;;4827880;29;20061;-73
2022/07/10 11:46:21;;;;;;;5.07;1.00;;;19.70;68.80;;;;;;4828816;29;20058;-74
2022/07/10 11:48:50;;;;;;;3.05;0.70;;;19.70;68.60;;;;;;4828749;29;20058;-74
2022/07/10 11:51:24;;;;;;;2.10;0.70;;;19.60;68.00;;;;;;4811745;29;20043;-73
2022/07/10 11:54:02;;;;;;;3.40;1.20;;;19.60;67.70;;;;;;4827332;29;20062;-74
2022/07/10 11:56:35;;;;;;;2.70;0.60;;;19.60;67.30;;;;;;4828519;29;20455;-73
2022/07/10 11:59:01;;;;;;;4.18;0.85;;;19.50;67.20;;;;;;4827904;29;20485;-73
2022/07/10 12:01:30;;;;;;;3.08;0.65;;;19.40;67.20;;;;;;4811360;29;20090;-73
2022/07/10 12:03:56;;;;;;;5.00;0.98;;;19.30;67.00;;;;;;4828240;29;20344;-73
2022/07/10 12:06:23;;;;;;;3.92;0.80;;;19.30;67.30;;;;;;4827857;29;20093;-75
2022/07/10 12:08:49;;;;;;;4.93;1.77;;;19.20;67.40;;;;;;4827749;29;20054;-73
2022/07/10 12:11:18;;;;;;;5.57;0.70;;;19.20;67.60;;;;;;4811486;29;20506;-73
2022/07/10 12:13:49;;;;;;;1.63;0.80;;;19.20;67.70;;;;;;4827560;29;20061;-73
2022/07/10 12:16:15;;;;;;;5.30;0.80;;;19.20;67.90;;;;;;4827647;29;20054;-74
2022/07/10 12:18:42;;;;;;;3.70;0.82;;;19.20;68.00;;;;;;4828051;29;20050;-72
2022/07/10 12:21:12;;;;;;;4.57;0.93;;;19.20;68.10;;;;;;4826621;29;20494;-73
2022/07/10 12:23:40;;;;;;;4.85;0.95;;;19.20;68.10;;;;;;4827592;29;20123;-72
2022/07/10 12:26:10;;;;;;;4.20;1.20;;;19.30;68.20;;;;;;4827612;29;20050;-73
2022/07/10 12:28:50;;;;;;;4.70;0.80;;;19.40;68.20;;;;;;4811513;29;20055;-73
2022/07/10 12:31:23;;;;;;;8.93;1.23;;;19.40;68.20;;;;;;4827011;29;20050;-72
2022/07/10 12:33:57;;;;;;;6.07;1.20;;;19.40;68.70;;;;;;4827313;29;20122;-72
2022/07/10 12:36:25;;;;;;;8.00;1.25;;;19.40;68.80;;;;;;4827646;29;20423;-72
2022/07/10 12:38:58;;;;;;;5.55;1.27;;;19.50;68.20;;;;;;4810640;29;20054;-74
2022/07/10 12:41:25;;;;;;;4.70;0.70;;;19.50;68.20;;;;;;4826887;29;20057;-72
2022/07/10 12:43:52;;;;;;;1.80;0.50;;;19.50;68.20;;;;;;4827146;29;20126;-74
2022/07/10 12:46:19;;;;;;;2.80;0.82;;;19.50;68.30;;;;;;4827196;29;20058;-75
2022/07/10 12:49:08;;;;;;;3.25;0.70;;;19.60;68.40;;;;;;4827266;29;20054;-81
2022/07/10 12:51:47;;;;;;;4.78;0.85;;;19.60;68.10;;;;;;4810677;29;20057;-77
2022/07/10 12:54:32;;;;;;;4.72;1.10;;;19.60;68.00;;;;;;4826811;29;20038;-75
2022/07/10 12:57:00;;;;;;;4.15;0.65;;;19.60;68.10;;;;;;4827028;29;20050;-75
2022/07/10 12:59:27;;;;;;;4.13;0.88;;;19.70;68.20;;;;;;4826820;29;20089;-74
2022/07/10 13:01:55;;;;;;;3.80;0.90;;;19.70;68.20;;;;;;4810361;29;20470;-74
2022/07/10 13:04:26;;;;;;;4.35;0.98;;;19.70;68.20;;;;;;4826834;29;20132;-74
2022/07/10 13:06:53;;;;;;;3.85;0.90;;;19.70;68.20;;;;;;4826408;29;20046;-74
2022/07/10 13:09:25;;;;;;;5.05;0.80;;;19.70;68.30;;;;;;4827092;29;20042;-73
2022/07/10 13:11:52;;;;;;;3.05;0.60;;;19.70;68.20;;;;;;4827023;29;20057;-73
2022/07/10 13:14:19;;;;;;;6.55;0.80;;;19.70;68.30;;;;;;4826532;29;20110;-74
2022/07/10 13:16:45;;;;;;;1.60;1.05;;;19.80;68.60;;;;;;4826672;29;20051;-75
2022/07/10 13:19:11;;;;;;;2.88;0.85;;;19.80;68.70;;;;;;4810564;29;20051;-77
2022/07/10 13:21:37;;;;;;;2.50;0.68;;;19.80;68.50;;;;;;4810538;29;20050;-77
2022/07/10 13:24:06;;;;;;;6.82;0.95;;;19.80;68.40;;;;;;4826544;29;20338;-80
2022/07/10 13:26:32;;;;;;;8.13;1.75;;;19.80;68.30;;;;;;4810302;29;20062;-77
2022/07/10 13:28:59;;;;;;;4.13;1.02;;;19.90;68.40;;;;;;4828379;29;20043;-77
2022/07/10 13:31:25;;;;;;;3.92;1.15;;;19.80;68.50;;;;;;4841883;29;20121;-78
2022/07/10 13:33:51;;;;;;;4.15;1.10;;;19.90;68.50;;;;;;4816228;29;20090;-79
2022/07/10 13:36:17;;;;;;;3.90;0.63;;;19.90;68.70;;;;;;4796038;29;20105;-79
2022/07/10 13:38:42;;;;;;;2.42;0.93;;;19.90;68.50;;;;;;4826218;29;20061;-78
2022/07/10 13:41:09;;;;;;;5.00;0.77;;;19.90;68.40;;;;;;4826519;29;20047;-77
2022/07/10 13:43:34;;;;;;;2.55;0.55;;;19.90;68.50;;;;;;4809706;29;20062;-77
2022/07/10 13:46:01;;;;;;;4.97;0.93;;;19.90;68.60;;;;;;4810639;29;20492;-76
2022/07/10 13:48:30;;;;;;;8.57;0.85;;;19.90;68.80;;;;;;4825653;29;20054;-78
2022/07/10 13:50:56;;;;;;;8.55;1.40;;;19.90;68.90;;;;;;4825553;29;20099;-77
2022/07/10 13:53:22;;;;;;;4.55;1.20;;;20.00;69.10;;;;;;4809646;29;20146;-78
2022/07/10 13:55:48;;;;;;;8.20;1.02;;;20.00;69.10;;;;;;4825637;29;20228;-78
2022/07/10 13:58:19;;;;;;;4.35;0.93;;;20.00;69.20;;;;;;4825819;29;20085;-78
2022/07/10 14:00:46;;;;;;;7.25;1.42;;;20.00;69.10;;;;;;4825854;29;20109;-77
2022/07/10 14:03:12;;;;;;;3.80;1.33;;;20.00;69.10;;;;;;4825656;29;20046;-76
2022/07/10 14:05:37;;;;;;;4.57;1.15;;;20.00;69.10;;;;;;4825996;29;20145;-77
2022/07/10 14:08:06;;;;;;;5.53;1.20;;;20.00;69.20;;;;;;4825713;29;20358;-76
2022/07/10 14:10:32;;;;;;;7.50;1.35;;;19.90;69.10;;;;;;4825696;29;20051;-79
2022/07/10 14:12:58;;;;;;;2.42;0.90;;;20.00;69.30;;;;;;4808898;29;20421;-77
2022/07/10 14:15:25;;;;;;;4.55;1.00;;;20.00;69.50;;;;;;4824231;29;20450;-77
2022/07/10 14:17:54;;;;;;;4.53;1.00;;;20.00;69.50;;;;;;4824942;29;20114;-82
2022/07/10 14:20:20;;;;;;;5.13;1.27;;;19.90;70.20;;;;;;4809807;29;20365;-79
2022/07/10 14:22:47;;;;;;;5.32;1.00;;;20.00;69.60;;;;;;4825632;29;20137;-77
2022/07/10 14:25:13;;;;;;;19.50;2.53;;;20.00;69.70;;;;;;4809754;29;20420;-76
2022/07/10 14:27:39;;;;;;;5.80;1.38;;;20.00;69.80;;;;;;4825787;29;20469;-80
2022/07/10 14:30:08;;;;;;;4.28;1.17;;;20.00;69.90;;;;;;4809686;29;20065;-75
2022/07/10 14:32:34;;;;;;;8.27;1.65;;;20.10;70.00;;;;;;4825487;29;20074;-76
2022/07/10 14:35:00;;;;;;;6.30;1.85;;;20.10;70.10;;;;;;4825784;29;20074;-76
2022/07/10 14:37:25;;;;;;;9.73;1.45;;;20.10;70.20;;;;;;4799579;29;20088;-80
2022/07/10 14:39:51;;;;;;;5.97;1.38;;;20.10;70.20;;;;;;4825632;29;20458;-77
2022/07/10 14:42:17;;;;;;;7.70;1.83;;;20.10;70.30;;;;;;4825502;29;20085;-77
2022/07/10 14:44:42;;;;;;;6.60;1.92;;;20.10;70.40;;;;;;4812546;29;20081;-77
2022/07/10 14:47:08;;;;;;;3.70;1.10;;;20.10;70.50;;;;;;4812988;29;20046;-80
2022/07/10 14:49:34;;;;;;;6.75;1.13;;;20.10;70.40;;;;;;4829025;29;20057;-80
2022/07/10 14:52:00;;;;;;;6.45;1.10;;;20.10;70.50;;;;;;4812711;29;20546;-79
2022/07/10 14:54:26;;;;;;;6.15;1.25;;;20.10;70.40;;;;;;4838078;29;20138;-78
2022/07/10 14:56:52;;;;;;;3.92;1.15;;;20.20;70.40;;;;;;4847334;29;20119;-77
2022/07/10 14:59:17;;;;;;;5.50;1.83;;;20.10;70.50;;;;;;4830587;29;20452;-78
2022/07/10 15:01:43;;;;;;;4.93;1.20;;;20.20;70.60;;;;;;4827495;29;20046;-76
2022/07/10 15:04:09;;;;;;;6.57;1.33;;;20.20;70.70;;;;;;4828389;29;20054;-77
2022/07/10 15:06:34;;;;;;;4.90;1.27;;;20.20;70.80;;;;;;4828726;29;20055;-78
2022/07/10 15:09:00;;;;;;;6.22;1.27;;;20.20;70.90;;;;;;4812950;29;20046;-78
2022/07/10 15:11:26;;;;;;;6.28;1.10;;;20.20;70.90;;;;;;4812395;29;20096;-77
2022/07/10 15:13:58;;;;;;;9.00;1.70;;;20.20;70.90;;;;;;4828216;29;20104;-78
2022/07/10 15:16:28;;;;;;;4.00;0.90;;;20.20;71.00;;;;;;4812491;29;20062;-78
2022/07/10 15:18:54;;;;;;;3.83;1.40;;;20.20;71.00;;;;;;4828899;29;20058;-77
2022/07/10 15:21:20;;;;;;;5.97;1.65;;;20.20;71.00;;;;;;4828418;29;20526;-81
2022/07/10 15:23:48;;;;;;;6.35;2.05;;;20.20;71.30;;;;;;4797636;29;20061;-79
2022/07/10 15:26:15;;;;;;;4.70;1.48;;;20.20;71.70;;;;;;4828277;29;20117;-79
2022/07/10 15:28:41;;;;;;;5.20;1.45;;;20.20;71.60;;;;;;4828187;29;20358;-79
2022/07/10 15:31:06;;;;;;;4.22;1.70;;;20.20;71.60;;;;;;4828226;29;20057;-78
2022/07/10 15:33:33;;;;;;;5.30;1.75;;;20.20;71.60;;;;;;4827522;29;20419;-78
2022/07/10 15:35:59;;;;;;;8.38;2.33;;;20.20;71.60;;;;;;4828332;29;20054;-79
2022/07/10 15:38:24;;;;;;;6.93;2.05;;;20.20;71.80;;;;;;4828352;29;20054;-77
2022/07/10 15:40:50;;;;;;;6.63;1.75;;;20.20;72.10;;;;;;4827965;29;20054;-79
2022/07/10 15:43:16;;;;;;;9.15;2.35;;;20.20;72.00;;;;;;4827822;29;20065;-78
2022/07/10 15:45:42;;;;;;;11.82;2.50;;;20.30;72.60;;;;;;4827923;29;20042;-80
2022/07/10 15:48:08;;;;;;;9.40;2.13;;;20.30;73.10;;;;;;4828799;29;20050;-80
2022/07/10 15:50:33;;;;;;;9.05;2.20;;;20.30;73.30;;;;;;4827235;29;20066;-81
2022/07/10 15:52:59;;;;;;;7.03;2.20;;;20.40;73.50;;;;;;4826297;29;20053;-80
2022/07/10 15:55:25;;;;;;;6.15;2.25;;;20.40;73.60;;;;;;4827044;29;20046;-75
2022/07/10 15:57:50;;;;;;;12.93;2.60;;;20.40;73.60;;;;;;4827761;29;20042;-76
2022/07/10 16:00:16;;;;;;;7.85;2.30;;;20.40;73.10;;;;;;4827865;29;20069;-75
2022/07/10 16:02:42;;;;;;;11.35;2.30;;;20.40;73.10;;;;;;4827635;29;20129;-76
2022/07/10 16:05:08;;;;;;;10.13;2.33;;;20.40;73.30;;;;;;4827259;29;20051;-77
2022/07/10 16:07:34;;;;;;;9.13;2.05;;;20.50;73.40;;;;;;4811711;29;20129;-76
2022/07/10 16:10:00;;;;;;;9.35;2.25;;;20.50;73.30;;;;;;4827797;29;20109;-76
2022/07/10 16:12:26;;;;;;;9.95;2.47;;;20.50;72.90;;;;;;4827621;29;20074;-76
2022/07/10 16:14:51;;;;;;;8.05;2.35;;;20.50;72.60;;;;;;4811666;29;20371;-76
2022/07/10 16:17:17;;;;;;;9.35;1.85;;;20.50;72.50;;;;;;4811815;29;20097;-76
2022/07/10 16:19:45;;;;;;;5.35;1.63;;;20.50;72.30;;;;;;4811736;29;20054;-77
2022/07/10 16:22:11;;;;;;;8.65;1.98;;;20.50;72.00;;;;;;4810862;29;20359;-76
2022/07/10 16:25:56;;;;;;;4.28;1.70;;;20.50;71.90;;;;;;4827341;29;20055;-77
2022/07/10 16:27:23;;;;;;;5.40;2.00;;;20.40;71.80;;;;;;4827078;29;20137;-76
2022/07/10 16:29:50;;;;;;;7.63;2.03;;;20.40;71.80;;;;;;4828180;29;20161;-76
2022/07/10 16:32:16;;;;;;;7.38;2.33;;;20.40;71.90;;;;;;4827386;29;20376;-75
2022/07/10 16:34:41;;;;;;;8.02;2.28;;;20.30;71.70;;;;;;4827467;29;20042;-76
2022/07/10 16:37:07;;;;;;;6.63;2.70;;;20.40;71.80;;;;;;4827503;29;20133;-78
2022/07/10 16:39:33;;;;;;;9.38;2.42;;;20.30;71.70;;;;;;4811548;29;20054;-77
2022/07/10 19:35:07;;;;;;;5.80;0.90;;;20.20;70.10;;;;;;5105214;24;20057;-76
2022/07/10 19:37:35;;;;;;;4.78;1.00;;;20.20;70.00;;;;;;4880856;29;20064;-77
2022/07/10 19:40:03;;;;;;;2.80;0.80;;;20.20;70.00;;;;;;4883818;29;20044;-77
2022/07/10 19:42:28;;;;;;;5.10;0.88;;;20.20;70.00;;;;;;4883634;29;20064;-77
2022/07/10 19:44:54;;;;;;;3.80;1.00;;;20.20;70.00;;;;;;4883981;29;20044;-77
2022/07/10 19:47:20;;;;;;;7.43;1.33;;;20.20;69.90;;;;;;4883560;29;20053;-75
2022/07/10 19:49:46;;;;;;;3.63;0.98;;;20.10;69.80;;;;;;4882955;29;20433;-76
2022/07/10 19:52:12;;;;;;;2.33;0.82;;;20.10;69.90;;;;;;4883569;29;20395;-76
2022/07/10 19:54:38;;;;;;;4.13;0.80;;;20.10;69.90;;;;;;4883245;29;20049;-76
2022/07/10 19:57:04;;;;;;;1.85;0.60;;;20.10;69.80;;;;;;4883399;29;20116;-77
2022/07/10 19:59:29;;;;;;;2.63;0.57;;;20.10;69.80;;;;;;4874991;29;20046;-79
2022/07/10 20:01:55;;;;;;;2.65;0.60;;;20.00;69.80;;;;;;4873301;29;20048;-77
2022/07/10 20:04:21;;;;;;;4.78;0.98;;;20.00;69.80;;;;;;4883241;29;20124;-77
2022/07/10 20:06:46;;;;;;;3.03;0.70;;;20.00;69.90;;;;;;4883490;29;20060;-76
2022/07/10 20:09:12;;;;;;;4.13;0.65;;;20.00;70.00;;;;;;4874789;29;20129;-77
2022/07/10 20:11:38;;;;;;;5.20;0.60;;;20.00;70.00;;;;;;4864638;29;20141;-77
2022/07/10 20:14:04;;;;;;;5.25;0.77;;;20.00;70.10;;;;;;4857328;29;20049;-76
2022/07/10 20:16:29;;;;;;;3.15;0.85;;;20.00;70.10;;;;;;4848133;29;20456;-77
2022/07/10 20:18:55;;;;;;;4.43;0.77;;;20.00;70.10;;;;;;4864244;29;20056;-76
2022/07/10 20:21:21;;;;;;;2.83;0.65;;;20.00;70.10;;;;;;4863782;29;20380;-77
2022/07/10 20:23:47;;;;;;;4.03;0.45;;;20.00;70.10;;;;;;4851342;29;20053;-78
2022/07/10 20:26:12;;;;;;;5.07;0.95;;;19.90;70.10;;;;;;4875723;29;20065;-76
2022/07/10 20:28:38;;;;;;;2.30;0.60;;;19.90;70.00;;;;;;4883047;29;20481;-78
2022/07/10 20:31:04;;;;;;;3.50;0.57;;;20.00;70.00;;;;;;4851129;29;20121;-75
2022/07/10 20:33:30;;;;;;;4.75;1.08;;;19.90;70.00;;;;;;4866567;29;20120;-75
2022/07/10 20:38:42;;;;;;;3.72;0.77;;;19.90;70.10;;;;;;4864022;29;20057;-77
2022/07/10 20:41:09;;;;;;;2.95;0.93;;;19.90;70.10;;;;;;4863864;29;20124;-75
2022/07/10 20:43:35;;;;;;;5.47;0.95;;;19.90;70.10;;;;;;4847770;29;20049;-77
2022/07/10 20:46:01;;;;;;;3.95;0.75;;;19.90;70.10;;;;;;4864185;29;20041;-74
2022/07/10 20:48:28;;;;;;;1.83;0.52;;;19.90;70.10;;;;;;4847434;29;20060;-77
2022/07/10 20:50:54;;;;;;;3.42;0.70;;;19.90;70.10;;;;;;4863726;29;20038;-78
2022/07/10 20:53:20;;;;;;;4.78;0.90;;;19.80;70.20;;;;;;4863705;29;20096;-75
2022/07/10 20:55:46;;;;;;;3.28;0.70;;;19.80;70.30;;;;;;4863657;29;20073;-76
2022/07/10 20:58:12;;;;;;;4.78;1.10;;;19.80;70.30;;;;;;4847417;29;20068;-78
2022/07/10 21:00:38;;;;;;;7.25;1.02;;;19.80;71.00;;;;;;4863473;29;20053;-78
